sensor_id;sensor_type;location;lat;lon;timestamp;temperature;humidity
4390;DHT22;2209;48.982;8.406;2023-02-28T00:00:35;3.90;90.40
4390;DHT22;2209;48.982;8.406;2023-02-28T00:02:57;3.90;90.50
4390;DHT22;2209;48.982;8.406;2023-02-28T00:05:22;3.90;90.50
4390;DHT22;2209;48.982;8.406;2023-02-28T00:07:46;3.80;90.50
4390;DHT22;2209;48.982;8.406;2023-02-28T00:10:10;3.80;90.80
4390;DHT22;2209;48.982;8.406;2023-02-28T00:12:33;3.80;90.60
4390;DHT22;2209;48.982;8.406;2023-02-28T00:14:55;3.80;90.60
4390;DHT22;2209;48.982;8.406;2023-02-28T00:17:17;3.70;90.60
4390;DHT22;2209;48.982;8.406;2023-02-28T00:19:41;3.80;90.70
4390;DHT22;2209;48.982;8.406;2023-02-28T00:22:03;3.70;90.70
4390;DHT22;2209;48.982;8.406;2023-02-28T00:24:27;3.70;90.70
4390;DHT22;2209;48.982;8.406;2023-02-28T00:26:49;3.70;90.70
4390;DHT22;2209;48.982;8.406;2023-02-28T00:29:11;3.70;90.80
4390;DHT22;2209;48.982;8.406;2023-02-28T00:31:33;3.70;90.80
4390;DHT22;2209;48.982;8.406;2023-02-28T00:33:55;3.70;90.80
4390;DHT22;2209;48.982;8.406;2023-02-28T00:36:17;3.60;90.80
4390;DHT22;2209;48.982;8.406;2023-02-28T00:38:40;3.60;90.90
4390;DHT22;2209;48.982;8.406;2023-02-28T00:41:04;3.60;90.90
4390;DHT22;2209;48.982;8.406;2023-02-28T00:43:26;3.60;90.90
4390;DHT22;2209;48.982;8.406;2023-02-28T00:45:48;3.60;91.00
4390;DHT22;2209;48.982;8.406;2023-02-28T00:48:10;3.60;91.00
4390;DHT22;2209;48.982;8.406;2023-02-28T00:50:32;3.60;91.00
4390;DHT22;2209;48.982;8.406;2023-02-28T00:52:54;3.60;91.10
4390;DHT22;2209;48.982;8.406;2023-02-28T00:55:16;3.60;91.10
4390;DHT22;2209;48.982;8.406;2023-02-28T00:57:40;3.60;91.10
4390;DHT22;2209;48.982;8.406;2023-02-28T01:00:03;3.60;91.10
4390;DHT22;2209;48.982;8.406;2023-02-28T01:02:25;3.60;91.10
4390;DHT22;2209;48.982;8.406;2023-02-28T01:04:47;3.60;91.10
4390;DHT22;2209;48.982;8.406;2023-02-28T01:07:10;3.60;91.10
4390;DHT22;2209;48.982;8.406;2023-02-28T01:09:32;3.60;91.10
4390;DHT22;2209;48.982;8.406;2023-02-28T01:11:54;3.60;91.20
4390;DHT22;2209;48.982;8.406;2023-02-28T01:14:18;3.50;91.20
4390;DHT22;2209;48.982;8.406;2023-02-28T01:16:40;3.50;91.20
4390;DHT22;2209;48.982;8.406;2023-02-28T01:19:02;3.50;91.20
4390;DHT22;2209;48.982;8.406;2023-02-28T01:21:24;3.50;91.20
4390;DHT22;2209;48.982;8.406;2023-02-28T01:23:47;3.50;91.20
4390;DHT22;2209;48.982;8.406;2023-02-28T01:26:12;3.50;91.20
4390;DHT22;2209;48.982;8.406;2023-02-28T01:28:34;3.50;91.30
4390;DHT22;2209;48.982;8.406;2023-02-28T01:30:58;3.50;91.30
4390;DHT22;2209;48.982;8.406;2023-02-28T01:33:20;3.40;91.30
4390;DHT22;2209;48.982;8.406;2023-02-28T01:35:42;3.40;91.40
4390;DHT22;2209;48.982;8.406;2023-02-28T01:38:04;3.50;91.40
4390;DHT22;2209;48.982;8.406;2023-02-28T01:40:26;3.40;91.40
4390;DHT22;2209;48.982;8.406;2023-02-28T01:42:48;3.40;91.50
4390;DHT22;2209;48.982;8.406;2023-02-28T01:45:21;3.40;91.90
4390;DHT22;2209;48.982;8.406;2023-02-28T01:47:46;3.40;91.60
4390;DHT22;2209;48.982;8.406;2023-02-28T01:50:13;3.30;91.60
4390;DHT22;2209;48.982;8.406;2023-02-28T01:52:36;3.30;91.60
4390;DHT22;2209;48.982;8.406;2023-02-28T01:55:00;3.40;91.70
4390;DHT22;2209;48.982;8.406;2023-02-28T01:57:25;3.40;91.70
4390;DHT22;2209;48.982;8.406;2023-02-28T01:59:54;3.40;91.70
4390;DHT22;2209;48.982;8.406;2023-02-28T02:02:21;3.40;91.80
4390;DHT22;2209;48.982;8.406;2023-02-28T02:04:50;3.40;91.80
4390;DHT22;2209;48.982;8.406;2023-02-28T02:07:13;3.40;91.70
4390;DHT22;2209;48.982;8.406;2023-02-28T02:09:35;3.40;91.80
4390;DHT22;2209;48.982;8.406;2023-02-28T02:11:59;3.40;91.80
4390;DHT22;2209;48.982;8.406;2023-02-28T02:14:36;3.40;91.80
4390;DHT22;2209;48.982;8.406;2023-02-28T02:17:20;3.40;91.90
4390;DHT22;2209;48.982;8.406;2023-02-28T02:20:24;3.40;92.00
4390;DHT22;2209;48.982;8.406;2023-02-28T02:23:13;3.30;92.00
4390;DHT22;2209;48.982;8.406;2023-02-28T02:25:44;3.30;92.00
4390;DHT22;2209;48.982;8.406;2023-02-28T02:31:27;3.30;92.20
4390;DHT22;2209;48.982;8.406;2023-02-28T02:34:36;3.30;92.20
4390;DHT22;2209;48.982;8.406;2023-02-28T02:37:08;3.30;92.40
4390;DHT22;2209;48.982;8.406;2023-02-28T02:39:36;3.30;92.40
4390;DHT22;2209;48.982;8.406;2023-02-28T02:42:01;3.30;92.40
4390;DHT22;2209;48.982;8.406;2023-02-28T02:44:27;3.30;92.40
4390;DHT22;2209;48.982;8.406;2023-02-28T02:46:54;3.30;92.60
4390;DHT22;2209;48.982;8.406;2023-02-28T02:49:21;3.20;92.60
4390;DHT22;2209;48.982;8.406;2023-02-28T02:51:46;3.20;92.70
4390;DHT22;2209;48.982;8.406;2023-02-28T02:54:11;3.20;92.70
4390;DHT22;2209;48.982;8.406;2023-02-28T02:56:38;3.10;92.70
4390;DHT22;2209;48.982;8.406;2023-02-28T02:59:04;3.10;92.80
4390;DHT22;2209;48.982;8.406;2023-02-28T03:01:28;3.10;92.90
4390;DHT22;2209;48.982;8.406;2023-02-28T03:03:51;3.10;93.00
4390;DHT22;2209;48.982;8.406;2023-02-28T03:06:14;3.10;93.00
4390;DHT22;2209;48.982;8.406;2023-02-28T03:08:38;3.00;93.10
4390;DHT22;2209;48.982;8.406;2023-02-28T03:11:02;3.00;93.10
4390;DHT22;2209;48.982;8.406;2023-02-28T03:13:41;3.00;93.20
4390;DHT22;2209;48.982;8.406;2023-02-28T03:16:28;3.00;93.30
4390;DHT22;2209;48.982;8.406;2023-02-28T03:18:57;3.00;93.30
4390;DHT22;2209;48.982;8.406;2023-02-28T03:21:27;3.00;93.30
4390;DHT22;2209;48.982;8.406;2023-02-28T03:23:56;3.00;93.40
4390;DHT22;2209;48.982;8.406;2023-02-28T03:26:22;3.00;93.40
4390;DHT22;2209;48.982;8.406;2023-02-28T03:28:52;3.00;93.50
4390;DHT22;2209;48.982;8.406;2023-02-28T03:31:18;3.00;93.50
4390;DHT22;2209;48.982;8.406;2023-02-28T03:33:44;3.00;93.60
4390;DHT22;2209;48.982;8.406;2023-02-28T03:36:18;2.90;93.60
4390;DHT22;2209;48.982;8.406;2023-02-28T03:38:44;2.90;93.70
4390;DHT22;2209;48.982;8.406;2023-02-28T03:41:14;2.90;93.80
4390;DHT22;2209;48.982;8.406;2023-02-28T03:43:41;2.90;93.90
4390;DHT22;2209;48.982;8.406;2023-02-28T03:46:09;2.90;94.00
4390;DHT22;2209;48.982;8.406;2023-02-28T03:48:36;2.90;94.00
4390;DHT22;2209;48.982;8.406;2023-02-28T03:50:59;2.90;94.00
4390;DHT22;2209;48.982;8.406;2023-02-28T03:53:27;2.90;94.10
4390;DHT22;2209;48.982;8.406;2023-02-28T03:55:52;2.90;94.20
4390;DHT22;2209;48.982;8.406;2023-02-28T03:58:22;2.90;94.20
4390;DHT22;2209;48.982;8.406;2023-02-28T04:00:50;2.80;94.20
4390;DHT22;2209;48.982;8.406;2023-02-28T04:03:17;2.90;94.30
4390;DHT22;2209;48.982;8.406;2023-02-28T04:05:52;2.90;94.40
4390;DHT22;2209;48.982;8.406;2023-02-28T04:08:14;2.90;94.40
4390;DHT22;2209;48.982;8.406;2023-02-28T04:10:36;2.90;94.50
4390;DHT22;2209;48.982;8.406;2023-02-28T04:12:59;2.80;94.50
4390;DHT22;2209;48.982;8.406;2023-02-28T04:15:22;2.80;94.50
4390;DHT22;2209;48.982;8.406;2023-02-28T04:17:45;2.80;94.60
4390;DHT22;2209;48.982;8.406;2023-02-28T04:20:08;2.80;94.70
4390;DHT22;2209;48.982;8.406;2023-02-28T04:22:31;2.80;95.00
4390;DHT22;2209;48.982;8.406;2023-02-28T04:24:53;2.80;94.80
4390;DHT22;2209;48.982;8.406;2023-02-28T04:27:15;2.80;94.80
4390;DHT22;2209;48.982;8.406;2023-02-28T04:29:37;2.80;94.80
4390;DHT22;2209;48.982;8.406;2023-02-28T04:32:01;2.80;94.80
4390;DHT22;2209;48.982;8.406;2023-02-28T04:34:24;2.80;94.80
4390;DHT22;2209;48.982;8.406;2023-02-28T04:36:46;2.80;94.70
4390;DHT22;2209;48.982;8.406;2023-02-28T04:39:09;2.80;94.80
4390;DHT22;2209;48.982;8.406;2023-02-28T04:41:31;2.80;94.80
4390;DHT22;2209;48.982;8.406;2023-02-28T04:43:53;2.80;94.80
4390;DHT22;2209;48.982;8.406;2023-02-28T04:46:16;2.80;94.80
4390;DHT22;2209;48.982;8.406;2023-02-28T04:48:40;2.80;94.80
4390;DHT22;2209;48.982;8.406;2023-02-28T04:51:06;2.80;94.80
4390;DHT22;2209;48.982;8.406;2023-02-28T04:53:29;2.80;94.90
4390;DHT22;2209;48.982;8.406;2023-02-28T04:55:51;2.80;94.90
4390;DHT22;2209;48.982;8.406;2023-02-28T04:58:13;2.80;94.90
4390;DHT22;2209;48.982;8.406;2023-02-28T05:00:35;2.70;94.90
4390;DHT22;2209;48.982;8.406;2023-02-28T05:02:57;2.70;94.90
4390;DHT22;2209;48.982;8.406;2023-02-28T05:05:21;2.70;95.00
4390;DHT22;2209;48.982;8.406;2023-02-28T05:07:45;2.70;95.00
4390;DHT22;2209;48.982;8.406;2023-02-28T05:10:09;2.70;95.00
4390;DHT22;2209;48.982;8.406;2023-02-28T05:12:33;2.70;95.10
4390;DHT22;2209;48.982;8.406;2023-02-28T05:14:55;2.70;95.00
4390;DHT22;2209;48.982;8.406;2023-02-28T05:17:17;2.70;95.10
4390;DHT22;2209;48.982;8.406;2023-02-28T05:19:41;2.70;95.10
4390;DHT22;2209;48.982;8.406;2023-02-28T05:22:04;2.70;95.10
4390;DHT22;2209;48.982;8.406;2023-02-28T05:24:26;2.70;95.10
4390;DHT22;2209;48.982;8.406;2023-02-28T05:26:50;2.60;95.10
4390;DHT22;2209;48.982;8.406;2023-02-28T05:29:13;2.60;95.10
4390;DHT22;2209;48.982;8.406;2023-02-28T05:31:36;2.60;95.20
4390;DHT22;2209;48.982;8.406;2023-02-28T05:33:58;2.60;95.20
4390;DHT22;2209;48.982;8.406;2023-02-28T05:36:20;2.60;95.20
4390;DHT22;2209;48.982;8.406;2023-02-28T05:38:46;2.60;95.20
4390;DHT22;2209;48.982;8.406;2023-02-28T05:41:09;2.60;95.30
4390;DHT22;2209;48.982;8.406;2023-02-28T05:43:31;2.60;95.30
4390;DHT22;2209;48.982;8.406;2023-02-28T05:45:53;2.50;95.30
4390;DHT22;2209;48.982;8.406;2023-02-28T05:48:15;2.60;95.30
4390;DHT22;2209;48.982;8.406;2023-02-28T05:50:37;2.50;95.30
4390;DHT22;2209;48.982;8.406;2023-02-28T05:52:59;2.50;95.40
4390;DHT22;2209;48.982;8.406;2023-02-28T05:55:24;2.50;95.40
4390;DHT22;2209;48.982;8.406;2023-02-28T05:57:46;2.50;95.50
4390;DHT22;2209;48.982;8.406;2023-02-28T06:00:09;2.50;95.60
4390;DHT22;2209;48.982;8.406;2023-02-28T06:02:32;2.50;95.60
4390;DHT22;2209;48.982;8.406;2023-02-28T06:04:54;2.50;95.60
4390;DHT22;2209;48.982;8.406;2023-02-28T06:07:16;2.50;95.60
4390;DHT22;2209;48.982;8.406;2023-02-28T06:09:38;2.50;95.70
4390;DHT22;2209;48.982;8.406;2023-02-28T06:12:04;2.50;95.70
4390;DHT22;2209;48.982;8.406;2023-02-28T06:14:27;2.50;95.80
4390;DHT22;2209;48.982;8.406;2023-02-28T06:16:52;2.50;95.80
4390;DHT22;2209;48.982;8.406;2023-02-28T06:19:14;2.50;95.90
4390;DHT22;2209;48.982;8.406;2023-02-28T06:21:36;2.50;95.90
4390;DHT22;2209;48.982;8.406;2023-02-28T06:23:59;2.50;95.90
4390;DHT22;2209;48.982;8.406;2023-02-28T06:26:21;2.50;96.00
4390;DHT22;2209;48.982;8.406;2023-02-28T06:28:50;2.50;96.00
4390;DHT22;2209;48.982;8.406;2023-02-28T06:31:14;2.50;96.10
4390;DHT22;2209;48.982;8.406;2023-02-28T06:33:37;2.50;96.10
4390;DHT22;2209;48.982;8.406;2023-02-28T06:35:59;2.50;96.10
4390;DHT22;2209;48.982;8.406;2023-02-28T06:38:22;2.50;96.10
4390;DHT22;2209;48.982;8.406;2023-02-28T06:40:44;2.50;96.20
4390;DHT22;2209;48.982;8.406;2023-02-28T06:43:06;2.50;96.20
4390;DHT22;2209;48.982;8.406;2023-02-28T06:45:32;2.50;96.20
4390;DHT22;2209;48.982;8.406;2023-02-28T06:47:55;2.50;96.30
4390;DHT22;2209;48.982;8.406;2023-02-28T06:50:17;2.50;96.30
4390;DHT22;2209;48.982;8.406;2023-02-28T06:52:41;2.50;96.30
4390;DHT22;2209;48.982;8.406;2023-02-28T06:55:04;2.60;96.30
4390;DHT22;2209;48.982;8.406;2023-02-28T06:57:27;2.50;96.30
4390;DHT22;2209;48.982;8.406;2023-02-28T06:59:52;2.60;96.30
4390;DHT22;2209;48.982;8.406;2023-02-28T07:02:15;2.60;96.30
4390;DHT22;2209;48.982;8.406;2023-02-28T07:04:37;2.60;96.30
4390;DHT22;2209;48.982;8.406;2023-02-28T07:07:01;2.60;96.40
4390;DHT22;2209;48.982;8.406;2023-02-28T07:09:23;2.60;96.30
4390;DHT22;2209;48.982;8.406;2023-02-28T07:11:50;2.60;96.30
4390;DHT22;2209;48.982;8.406;2023-02-28T07:14:12;2.60;96.30
4390;DHT22;2209;48.982;8.406;2023-02-28T07:16:35;2.60;96.40
4390;DHT22;2209;48.982;8.406;2023-02-28T07:18:58;2.60;96.40
4390;DHT22;2209;48.982;8.406;2023-02-28T07:21:21;2.60;96.40
4390;DHT22;2209;48.982;8.406;2023-02-28T07:23:43;2.60;96.40
4390;DHT22;2209;48.982;8.406;2023-02-28T07:26:05;2.60;96.40
4390;DHT22;2209;48.982;8.406;2023-02-28T07:28:28;2.60;96.40
4390;DHT22;2209;48.982;8.406;2023-02-28T07:30:50;2.60;96.40
4390;DHT22;2209;48.982;8.406;2023-02-28T07:33:12;2.60;96.40
4390;DHT22;2209;48.982;8.406;2023-02-28T07:35:36;2.60;96.40
4390;DHT22;2209;48.982;8.406;2023-02-28T07:37:59;2.60;96.40
4390;DHT22;2209;48.982;8.406;2023-02-28T07:40:21;2.60;96.40
4390;DHT22;2209;48.982;8.406;2023-02-28T07:42:43;2.60;96.40
4390;DHT22;2209;48.982;8.406;2023-02-28T07:45:06;2.70;96.40
4390;DHT22;2209;48.982;8.406;2023-02-28T07:47:29;2.70;96.20
4390;DHT22;2209;48.982;8.406;2023-02-28T07:49:51;2.70;96.30
4390;DHT22;2209;48.982;8.406;2023-02-28T07:52:14;2.70;96.40
4390;DHT22;2209;48.982;8.406;2023-02-28T07:54:36;2.70;96.30
4390;DHT22;2209;48.982;8.406;2023-02-28T07:56:59;2.70;96.30
4390;DHT22;2209;48.982;8.406;2023-02-28T07:59:21;2.70;96.30
4390;DHT22;2209;48.982;8.406;2023-02-28T08:01:43;2.70;96.30
4390;DHT22;2209;48.982;8.406;2023-02-28T08:04:05;2.70;96.30
4390;DHT22;2209;48.982;8.406;2023-02-28T08:06:27;2.70;96.30
4390;DHT22;2209;48.982;8.406;2023-02-28T08:08:51;2.70;96.30
4390;DHT22;2209;48.982;8.406;2023-02-28T08:11:13;2.70;96.20
4390;DHT22;2209;48.982;8.406;2023-02-28T08:13:35;2.70;96.20
4390;DHT22;2209;48.982;8.406;2023-02-28T08:15:57;2.70;96.20
4390;DHT22;2209;48.982;8.406;2023-02-28T08:18:20;2.70;96.20
4390;DHT22;2209;48.982;8.406;2023-02-28T08:20:42;2.70;96.30
4390;DHT22;2209;48.982;8.406;2023-02-28T08:23:04;2.70;96.20
4390;DHT22;2209;48.982;8.406;2023-02-28T08:25:27;2.80;96.30
4390;DHT22;2209;48.982;8.406;2023-02-28T08:27:50;2.80;96.20
4390;DHT22;2209;48.982;8.406;2023-02-28T08:30:16;2.80;96.30
4390;DHT22;2209;48.982;8.406;2023-02-28T08:32:38;2.80;96.30
4390;DHT22;2209;48.982;8.406;2023-02-28T08:35:01;2.70;96.30
4390;DHT22;2209;48.982;8.406;2023-02-28T08:37:23;2.80;96.30
4390;DHT22;2209;48.982;8.406;2023-02-28T08:39:45;2.80;96.30
4390;DHT22;2209;48.982;8.406;2023-02-28T08:42:09;2.80;96.30
4390;DHT22;2209;48.982;8.406;2023-02-28T08:44:32;2.80;96.50
4390;DHT22;2209;48.982;8.406;2023-02-28T08:46:54;2.80;96.10
4390;DHT22;2209;48.982;8.406;2023-02-28T08:49:16;2.80;96.20
4390;DHT22;2209;48.982;8.406;2023-02-28T08:51:39;2.80;96.20
4390;DHT22;2209;48.982;8.406;2023-02-28T08:54:01;2.80;96.20
4390;DHT22;2209;48.982;8.406;2023-02-28T08:56:23;2.80;96.30
4390;DHT22;2209;48.982;8.406;2023-02-28T08:58:48;2.80;96.30
4390;DHT22;2209;48.982;8.406;2023-02-28T09:01:12;2.90;96.30
4390;DHT22;2209;48.982;8.406;2023-02-28T09:03:35;2.90;96.20
4390;DHT22;2209;48.982;8.406;2023-02-28T09:05:59;2.90;96.30
4390;DHT22;2209;48.982;8.406;2023-02-28T09:08:21;2.90;96.60
4390;DHT22;2209;48.982;8.406;2023-02-28T09:10:43;2.90;96.30
4390;DHT22;2209;48.982;8.406;2023-02-28T09:13:06;2.90;96.20
4390;DHT22;2209;48.982;8.406;2023-02-28T09:15:29;2.90;96.20
4390;DHT22;2209;48.982;8.406;2023-02-28T09:17:51;2.90;96.50
4390;DHT22;2209;48.982;8.406;2023-02-28T09:20:13;2.90;96.20
4390;DHT22;2209;48.982;8.406;2023-02-28T09:22:36;2.90;96.30
4390;DHT22;2209;48.982;8.406;2023-02-28T09:24:58;2.90;96.40
4390;DHT22;2209;48.982;8.406;2023-02-28T09:27:20;2.90;96.40
4390;DHT22;2209;48.982;8.406;2023-02-28T09:29:42;2.90;96.40
4390;DHT22;2209;48.982;8.406;2023-02-28T09:32:06;2.90;96.40
4390;DHT22;2209;48.982;8.406;2023-02-28T09:34:28;2.90;96.40
4390;DHT22;2209;48.982;8.406;2023-02-28T09:36:51;2.90;96.40
4390;DHT22;2209;48.982;8.406;2023-02-28T09:39:16;3.00;96.50
4390;DHT22;2209;48.982;8.406;2023-02-28T09:41:40;3.00;96.40
4390;DHT22;2209;48.982;8.406;2023-02-28T09:44:16;3.00;96.40
4390;DHT22;2209;48.982;8.406;2023-02-28T09:46:44;3.00;96.70
4390;DHT22;2209;48.982;8.406;2023-02-28T09:49:14;3.00;96.40
4390;DHT22;2209;48.982;8.406;2023-02-28T09:51:45;3.00;96.50
4390;DHT22;2209;48.982;8.406;2023-02-28T09:54:14;3.10;96.30
4390;DHT22;2209;48.982;8.406;2023-02-28T09:56:41;3.10;96.30
4390;DHT22;2209;48.982;8.406;2023-02-28T09:59:10;3.10;96.20
4390;DHT22;2209;48.982;8.406;2023-02-28T10:01:39;3.10;96.10
4390;DHT22;2209;48.982;8.406;2023-02-28T10:04:09;3.10;96.00
4390;DHT22;2209;48.982;8.406;2023-02-28T10:06:39;3.10;96.00
4390;DHT22;2209;48.982;8.406;2023-02-28T10:09:05;3.10;95.90
4390;DHT22;2209;48.982;8.406;2023-02-28T10:11:32;3.20;95.80
4390;DHT22;2209;48.982;8.406;2023-02-28T10:13:58;3.20;95.70
4390;DHT22;2209;48.982;8.406;2023-02-28T10:16:29;3.20;95.50
4390;DHT22;2209;48.982;8.406;2023-02-28T10:18:57;3.20;95.20
4390;DHT22;2209;48.982;8.406;2023-02-28T10:21:23;3.20;95.10
4390;DHT22;2209;48.982;8.406;2023-02-28T10:23:49;3.30;95.10
4390;DHT22;2209;48.982;8.406;2023-02-28T10:26:17;3.30;95.10
4390;DHT22;2209;48.982;8.406;2023-02-28T10:28:39;3.30;95.10
4390;DHT22;2209;48.982;8.406;2023-02-28T10:31:02;3.30;95.10
4390;DHT22;2209;48.982;8.406;2023-02-28T10:33:28;3.30;95.20
4390;DHT22;2209;48.982;8.406;2023-02-28T10:35:51;3.30;95.20
4390;DHT22;2209;48.982;8.406;2023-02-28T10:38:17;3.30;95.30
4390;DHT22;2209;48.982;8.406;2023-02-28T10:40:42;3.30;95.30
4390;DHT22;2209;48.982;8.406;2023-02-28T10:43:06;3.30;95.30
4390;DHT22;2209;48.982;8.406;2023-02-28T10:45:40;3.30;95.30
4390;DHT22;2209;48.982;8.406;2023-02-28T10:48:29;3.30;95.20
4390;DHT22;2209;48.982;8.406;2023-02-28T10:50:52;3.40;95.20
4390;DHT22;2209;48.982;8.406;2023-02-28T10:53:30;3.40;95.20
4390;DHT22;2209;48.982;8.406;2023-02-28T10:55:59;3.40;95.20
4390;DHT22;2209;48.982;8.406;2023-02-28T10:58:22;3.40;95.20
4390;DHT22;2209;48.982;8.406;2023-02-28T11:00:44;3.40;95.10
4390;DHT22;2209;48.982;8.406;2023-02-28T11:03:24;3.40;95.10
4390;DHT22;2209;48.982;8.406;2023-02-28T11:05:47;3.50;95.10
4390;DHT22;2209;48.982;8.406;2023-02-28T11:08:12;3.50;95.10
4390;DHT22;2209;48.982;8.406;2023-02-28T11:10:36;3.50;95.30
4390;DHT22;2209;48.982;8.406;2023-02-28T11:13:04;3.50;95.30
4390;DHT22;2209;48.982;8.406;2023-02-28T11:15:28;3.50;95.40
4390;DHT22;2209;48.982;8.406;2023-02-28T11:17:55;3.50;95.40
4390;DHT22;2209;48.982;8.406;2023-02-28T11:20:21;3.50;95.40
4390;DHT22;2209;48.982;8.406;2023-02-28T11:22:45;3.50;95.40
4390;DHT22;2209;48.982;8.406;2023-02-28T11:25:15;3.50;95.40
4390;DHT22;2209;48.982;8.406;2023-02-28T11:27:46;3.50;95.50
4390;DHT22;2209;48.982;8.406;2023-02-28T11:30:30;3.50;95.40
4390;DHT22;2209;48.982;8.406;2023-02-28T11:32:52;3.50;95.30
4390;DHT22;2209;48.982;8.406;2023-02-28T11:35:18;3.60;95.20
4390;DHT22;2209;48.982;8.406;2023-02-28T11:37:43;3.60;95.30
4390;DHT22;2209;48.982;8.406;2023-02-28T11:40:13;3.60;95.40
4390;DHT22;2209;48.982;8.406;2023-02-28T11:42:44;3.70;95.40
4390;DHT22;2209;48.982;8.406;2023-02-28T11:45:17;3.60;95.40
4390;DHT22;2209;48.982;8.406;2023-02-28T11:47:47;3.70;95.50
4390;DHT22;2209;48.982;8.406;2023-02-28T11:50:22;3.70;95.40
4390;DHT22;2209;48.982;8.406;2023-02-28T11:52:51;3.70;95.20
4390;DHT22;2209;48.982;8.406;2023-02-28T11:55:18;3.70;95.10
4390;DHT22;2209;48.982;8.406;2023-02-28T12:00:40;3.80;94.70
4390;DHT22;2209;48.982;8.406;2023-02-28T12:03:15;3.80;94.50
4390;DHT22;2209;48.982;8.406;2023-02-28T12:05:43;3.80;94.40
4390;DHT22;2209;48.982;8.406;2023-02-28T12:08:17;3.80;94.30
4390;DHT22;2209;48.982;8.406;2023-02-28T12:10:54;3.80;94.30
4390;DHT22;2209;48.982;8.406;2023-02-28T12:13:23;3.90;94.40
4390;DHT22;2209;48.982;8.406;2023-02-28T12:16:08;4.00;94.20
4390;DHT22;2209;48.982;8.406;2023-02-28T12:18:47;4.00;94.10
4390;DHT22;2209;48.982;8.406;2023-02-28T12:21:20;4.00;94.20
4390;DHT22;2209;48.982;8.406;2023-02-28T12:24:07;4.00;94.10
4390;DHT22;2209;48.982;8.406;2023-02-28T12:26:38;4.00;94.00
4390;DHT22;2209;48.982;8.406;2023-02-28T12:29:05;4.00;94.00
4390;DHT22;2209;48.982;8.406;2023-02-28T12:31:34;4.00;94.00
4390;DHT22;2209;48.982;8.406;2023-02-28T12:34:04;4.00;93.90
4390;DHT22;2209;48.982;8.406;2023-02-28T12:36:28;4.00;93.90
4390;DHT22;2209;48.982;8.406;2023-02-28T12:38:53;4.00;93.90
4390;DHT22;2209;48.982;8.406;2023-02-28T12:41:19;4.00;93.80
4390;DHT22;2209;48.982;8.406;2023-02-28T12:43:47;4.00;93.90
4390;DHT22;2209;48.982;8.406;2023-02-28T12:46:14;4.00;93.90
4390;DHT22;2209;48.982;8.406;2023-02-28T12:48:41;4.10;94.10
4390;DHT22;2209;48.982;8.406;2023-02-28T12:51:06;4.20;94.10
4390;DHT22;2209;48.982;8.406;2023-02-28T12:53:35;4.20;94.20
4390;DHT22;2209;48.982;8.406;2023-02-28T12:56:09;4.30;94.20
4390;DHT22;2209;48.982;8.406;2023-02-28T12:58:38;4.40;94.00
4390;DHT22;2209;48.982;8.406;2023-02-28T13:01:14;4.50;93.90
4390;DHT22;2209;48.982;8.406;2023-02-28T13:04:14;4.60;93.90
4390;DHT22;2209;48.982;8.406;2023-02-28T13:06:58;4.60;93.70
4390;DHT22;2209;48.982;8.406;2023-02-28T13:09:22;4.60;93.50
4390;DHT22;2209;48.982;8.406;2023-02-28T13:11:46;4.60;93.40
4390;DHT22;2209;48.982;8.406;2023-02-28T13:14:23;4.60;93.60
4390;DHT22;2209;48.982;8.406;2023-02-28T13:17:01;4.70;93.60
4390;DHT22;2209;48.982;8.406;2023-02-28T13:19:26;4.70;93.70
4390;DHT22;2209;48.982;8.406;2023-02-28T13:21:51;4.80;93.50
4390;DHT22;2209;48.982;8.406;2023-02-28T13:24:39;4.90;93.30
4390;DHT22;2209;48.982;8.406;2023-02-28T13:27:33;5.00;93.30
4390;DHT22;2209;48.982;8.406;2023-02-28T13:29:55;5.00;93.30
4390;DHT22;2209;48.982;8.406;2023-02-28T13:32:41;5.10;93.10
4390;DHT22;2209;48.982;8.406;2023-02-28T13:35:34;5.10;92.90
4390;DHT22;2209;48.982;8.406;2023-02-28T13:41:41;5.20;93.10
4390;DHT22;2209;48.982;8.406;2023-02-28T13:44:04;5.20;93.10
4390;DHT22;2209;48.982;8.406;2023-02-28T13:46:26;5.20;93.00
4390;DHT22;2209;48.982;8.406;2023-02-28T13:48:48;5.20;93.00
4390;DHT22;2209;48.982;8.406;2023-02-28T13:51:38;5.30;93.00
4390;DHT22;2209;48.982;8.406;2023-02-28T13:54:03;5.30;93.00
4390;DHT22;2209;48.982;8.406;2023-02-28T13:56:42;5.30;92.90
4390;DHT22;2209;48.982;8.406;2023-02-28T13:59:19;5.40;93.00
4390;DHT22;2209;48.982;8.406;2023-02-28T14:01:53;5.30;92.70
4390;DHT22;2209;48.982;8.406;2023-02-28T14:04:48;5.40;93.00
4390;DHT22;2209;48.982;8.406;2023-02-28T14:07:18;5.40;93.30
4390;DHT22;2209;48.982;8.406;2023-02-28T14:09:46;5.50;93.10
4390;DHT22;2209;48.982;8.406;2023-02-28T14:17:40;5.60;93.00
4390;DHT22;2209;48.982;8.406;2023-02-28T14:20:03;5.70;92.90
4390;DHT22;2209;48.982;8.406;2023-02-28T14:22:43;5.70;92.80
4390;DHT22;2209;48.982;8.406;2023-02-28T14:25:17;5.70;92.80
4390;DHT22;2209;48.982;8.406;2023-02-28T14:27:49;5.70;92.80
4390;DHT22;2209;48.982;8.406;2023-02-28T14:30:37;5.80;92.60
4390;DHT22;2209;48.982;8.406;2023-02-28T14:33:18;5.70;92.40
4390;DHT22;2209;48.982;8.406;2023-02-28T14:35:58;5.70;92.50
4390;DHT22;2209;48.982;8.406;2023-02-28T14:38:25;5.80;92.70
4390;DHT22;2209;48.982;8.406;2023-02-28T14:40:51;5.80;92.70
4390;DHT22;2209;48.982;8.406;2023-02-28T14:43:20;5.80;92.70
4390;DHT22;2209;48.982;8.406;2023-02-28T14:45:43;5.90;92.60
4390;DHT22;2209;48.982;8.406;2023-02-28T14:48:09;5.90;92.50
4390;DHT22;2209;48.982;8.406;2023-02-28T14:50:34;6.00;92.60
4390;DHT22;2209;48.982;8.406;2023-02-28T14:52:57;6.00;92.70
4390;DHT22;2209;48.982;8.406;2023-02-28T14:55:24;6.10;92.60
4390;DHT22;2209;48.982;8.406;2023-02-28T14:57:54;6.10;92.40
4390;DHT22;2209;48.982;8.406;2023-02-28T15:00:24;6.20;92.50
4390;DHT22;2209;48.982;8.406;2023-02-28T15:02:46;6.30;92.40
4390;DHT22;2209;48.982;8.406;2023-02-28T15:05:23;6.30;92.40
4390;DHT22;2209;48.982;8.406;2023-02-28T15:07:46;6.40;92.20
4390;DHT22;2209;48.982;8.406;2023-02-28T15:10:16;6.40;92.10
4390;DHT22;2209;48.982;8.406;2023-02-28T15:12:40;6.50;92.20
4390;DHT22;2209;48.982;8.406;2023-02-28T15:15:04;6.50;91.90
4390;DHT22;2209;48.982;8.406;2023-02-28T15:17:27;6.50;91.70
4390;DHT22;2209;48.982;8.406;2023-02-28T15:19:52;6.50;91.70
4390;DHT22;2209;48.982;8.406;2023-02-28T15:22:20;6.50;91.80
4390;DHT22;2209;48.982;8.406;2023-02-28T15:24:48;6.60;91.70
4390;DHT22;2209;48.982;8.406;2023-02-28T15:27:13;6.60;91.60
4390;DHT22;2209;48.982;8.406;2023-02-28T15:29:46;6.60;91.40
4390;DHT22;2209;48.982;8.406;2023-02-28T15:32:24;6.60;91.40
4390;DHT22;2209;48.982;8.406;2023-02-28T15:34:46;6.60;91.40
4390;DHT22;2209;48.982;8.406;2023-02-28T15:37:26;6.70;91.30
4390;DHT22;2209;48.982;8.406;2023-02-28T15:39:49;6.70;91.30
4390;DHT22;2209;48.982;8.406;2023-02-28T15:42:11;6.70;91.30
4390;DHT22;2209;48.982;8.406;2023-02-28T15:44:34;6.70;91.40
4390;DHT22;2209;48.982;8.406;2023-02-28T15:47:01;6.80;91.60
4390;DHT22;2209;48.982;8.406;2023-02-28T15:49:25;6.80;91.20
4390;DHT22;2209;48.982;8.406;2023-02-28T15:51:49;6.80;91.10
4390;DHT22;2209;48.982;8.406;2023-02-28T15:54:18;6.90;91.00
4390;DHT22;2209;48.982;8.406;2023-02-28T15:56:44;6.90;90.80
4390;DHT22;2209;48.982;8.406;2023-02-28T15:59:07;6.90;90.70
4390;DHT22;2209;48.982;8.406;2023-02-28T16:01:36;6.90;90.80
4390;DHT22;2209;48.982;8.406;2023-02-28T16:04:01;6.90;90.90
4390;DHT22;2209;48.982;8.406;2023-02-28T16:06:37;6.90;91.00
4390;DHT22;2209;48.982;8.406;2023-02-28T16:09:00;6.90;90.90
4390;DHT22;2209;48.982;8.406;2023-02-28T16:11:23;6.90;90.80
4390;DHT22;2209;48.982;8.406;2023-02-28T16:13:45;6.90;90.80
4390;DHT22;2209;48.982;8.406;2023-02-28T16:16:07;6.90;90.70
4390;DHT22;2209;48.982;8.406;2023-02-28T16:18:29;6.90;90.70
4390;DHT22;2209;48.982;8.406;2023-02-28T16:20:51;6.90;90.60
4390;DHT22;2209;48.982;8.406;2023-02-28T16:23:14;6.90;90.50
4390;DHT22;2209;48.982;8.406;2023-02-28T16:25:38;6.90;90.30